TJBQ

Details ICAO TJBQ (BQN)
Name Rafael Hernandez
Region USA (Puerto Rico)
Timezone America/Puerto_Rico (UTC-4.0)
Plans Departing 100
Arriving 116
Stats Elevation 235 ft / 72 m (AMSL)
Location 18.494800° -67.129400°
Runways 1
Magnetic Variation 12.783° W
Sunrise 2018-10-15 10:23:24 UTC / 2018-10-15 06:23:24 Local
Sunset 2018-10-15 22:07:27 UTC / 2018-10-15 18:07:27 Local
Advertisement - Login to hide

Runways

ID Width Length Bearing (true/mag) Surface Threshold Overrun Markings Lighting
08 200 ft / 61 m 11,691 ft / 3,564 m 72.30° / 85.09° ASPHALT 400 ft / 122 m 725 ft / 221 m APP EDGE THRESHOLD REIL-OMNI
26 200 ft / 61 m 11,691 ft / 3,564 m 252.31° / 265.10° ASPHALT 0 ft / 0 m 1,063 ft / 324 m APP EDGE THRESHOLD

Map

Weather


0- 5 10 15 20 25 30 35+ Temperature / °C

Clouds and Precipitation
Forecast for 2018-10-15 18:00 UTC. Updated 5 hours ago

Ground ~20,000 ft ~40,000 ft Winds

METAR

TJBQ 151950Z 09017G20KT 10SM BKN017 BKN025 28/ A2997

TAF

TAF TAF AMD TJBQ 152021Z 1520/1618 09016G20KT P6SM SCT020 BKN060 TEMPO 1520/1522 BKN017 FM152300 10008KT P6SM SCT025 SCT080 FM161400 08013KT P6SM SCT025 AMD NOT SKED 1602/1611

Frequencies

Recorded 118.32 MHz ATIS
Approach 118.75 MHz SAN JUAN CNTR
Ground 120.87 MHz GRND
Approach 118.15 MHz APPR
Unicom 123.00 MHz UNICOM
Tower 124.95 MHz
Warning: Do not use this data for real-world aviation or navigation. No guarantee of current accuracy is given.